sensor_id;sensor_type;location;lat;lon;timestamp;pressure;altitude;pressure_sealevel;temperature;humidity
47054;BME280;32811;52.382;5.270;2024-02-21T00:01:22;102183.69;;;8.03;100.00
47054;BME280;32811;52.382;5.270;2024-02-21T00:03:49;102176.13;;;8.08;100.00
47054;BME280;32811;52.382;5.270;2024-02-21T00:06:15;102169.34;;;8.10;100.00
47054;BME280;32811;52.382;5.270;2024-02-21T00:08:42;102171.16;;;8.13;100.00
47054;BME280;32811;52.382;5.270;2024-02-21T00:11:09;102155.53;;;8.06;100.00
47054;BME280;32811;52.382;5.270;2024-02-21T00:13:36;102151.09;;;8.02;100.00
47054;BME280;32811;52.382;5.270;2024-02-21T00:16:02;102167.56;;;8.07;100.00
47054;BME280;32811;52.382;5.270;2024-02-21T00:18:29;102152.84;;;8.03;100.00
47054;BME280;32811;52.382;5.270;2024-02-21T00:20:56;102166.63;;;8.05;100.00
47054;BME280;32811;52.382;5.270;2024-02-21T00:23:23;102172.47;;;8.01;100.00
47054;BME280;32811;52.382;5.270;2024-02-21T00:25:49;102161.72;;;8.11;100.00
47054;BME280;32811;52.382;5.270;2024-02-21T00:28:16;102154.06;;;8.13;100.00
47054;BME280;32811;52.382;5.270;2024-02-21T00:30:43;102146.19;;;8.08;100.00
47054;BME280;32811;52.382;5.270;2024-02-21T00:33:10;102135.00;;;8.08;100.00
47054;BME280;32811;52.382;5.270;2024-02-21T00:35:37;102127.13;;;8.03;100.00
47054;BME280;32811;52.382;5.270;2024-02-21T00:38:04;102139.03;;;8.01;100.00
47054;BME280;32811;52.382;5.270;2024-02-21T00:40:31;102125.38;;;8.02;100.00
47054;BME280;32811;52.382;5.270;2024-02-21T00:42:58;102135.56;;;7.99;100.00
47054;BME280;32811;52.382;5.270;2024-02-21T00:45:25;102126.16;;;8.00;100.00
47054;BME280;32811;52.382;5.270;2024-02-21T00:47:51;102125.28;;;7.99;100.00
47054;BME280;32811;52.382;5.270;2024-02-21T00:50:18;102128.72;;;8.00;100.00
47054;BME280;32811;52.382;5.270;2024-02-21T00:52:45;102114.78;;;7.93;100.00
47054;BME280;32811;52.382;5.270;2024-02-21T00:55:11;102131.94;;;7.94;100.00
47054;BME280;32811;52.382;5.270;2024-02-21T00:57:38;102129.38;;;7.94;100.00
47054;BME280;32811;52.382;5.270;2024-02-21T01:00:05;102136.28;;;7.95;100.00
47054;BME280;32811;52.382;5.270;2024-02-21T01:02:32;102142.22;;;7.94;100.00
47054;BME280;32811;52.382;5.270;2024-02-21T01:04:59;102130.22;;;7.93;100.00
47054;BME280;32811;52.382;5.270;2024-02-21T01:07:25;102143.28;;;7.99;100.00
47054;BME280;32811;52.382;5.270;2024-02-21T01:09:55;102144.25;;;8.03;100.00
47054;BME280;32811;52.382;5.270;2024-02-21T01:12:22;102144.09;;;7.98;100.00
47054;BME280;32811;52.382;5.270;2024-02-21T01:14:48;102137.25;;;7.99;100.00
47054;BME280;32811;52.382;5.270;2024-02-21T01:17:16;102115.00;;;7.99;100.00
47054;BME280;32811;52.382;5.270;2024-02-21T01:19:42;102115.09;;;8.02;100.00
47054;BME280;32811;52.382;5.270;2024-02-21T01:22:09;102112.38;;;7.98;100.00
47054;BME280;32811;52.382;5.270;2024-02-21T01:24:36;102090.94;;;7.97;100.00
47054;BME280;32811;52.382;5.270;2024-02-21T01:27:03;102106.47;;;8.00;100.00
47054;BME280;32811;52.382;5.270;2024-02-21T01:29:32;102102.03;;;7.96;100.00
47054;BME280;32811;52.382;5.270;2024-02-21T01:31:59;102095.31;;;8.00;100.00
47054;BME280;32811;52.382;5.270;2024-02-21T01:34:25;102096.25;;;8.02;100.00
47054;BME280;32811;52.382;5.270;2024-02-21T01:36:57;102100.47;;;8.01;100.00
47054;BME280;32811;52.382;5.270;2024-02-21T01:39:28;102092.81;;;8.03;100.00
47054;BME280;32811;52.382;5.270;2024-02-21T01:41:54;102086.81;;;8.02;100.00
47054;BME280;32811;52.382;5.270;2024-02-21T01:44:21;102072.09;;;7.98;100.00
47054;BME280;32811;52.382;5.270;2024-02-21T01:46:47;102076.63;;;8.05;100.00
47054;BME280;32811;52.382;5.270;2024-02-21T01:49:14;102059.47;;;8.04;100.00
47054;BME280;32811;52.382;5.270;2024-02-21T01:51:41;102052.47;;;8.00;100.00
47054;BME280;32811;52.382;5.270;2024-02-21T01:54:08;102062.91;;;8.05;100.00
47054;BME280;32811;52.382;5.270;2024-02-21T01:56:36;102050.03;;;8.05;100.00
47054;BME280;32811;52.382;5.270;2024-02-21T01:59:03;102043.09;;;8.02;100.00
47054;BME280;32811;52.382;5.270;2024-02-21T02:01:29;102051.59;;;8.00;100.00
47054;BME280;32811;52.382;5.270;2024-02-21T02:03:57;102057.59;;;8.00;100.00
47054;BME280;32811;52.382;5.270;2024-02-21T02:06:25;102067.28;;;8.07;100.00
47054;BME280;32811;52.382;5.270;2024-02-21T02:08:55;102061.97;;;8.03;100.00
47054;BME280;32811;52.382;5.270;2024-02-21T02:11:23;102066.34;;;8.05;100.00
47054;BME280;32811;52.382;5.270;2024-02-21T02:13:49;102064.75;;;8.09;100.00
47054;BME280;32811;52.382;5.270;2024-02-21T02:16:16;102057.84;;;8.08;100.00
47054;BME280;32811;52.382;5.270;2024-02-21T02:18:43;102064.75;;;8.09;100.00
47054;BME280;32811;52.382;5.270;2024-02-21T02:21:21;102063.16;;;8.13;100.00
47054;BME280;32811;52.382;5.270;2024-02-21T02:23:49;102055.34;;;8.09;100.00
47054;BME280;32811;52.382;5.270;2024-02-21T02:26:15;102057.13;;;8.10;100.00
47054;BME280;32811;52.382;5.270;2024-02-21T02:28:42;102060.50;;;8.09;100.00
47054;BME280;32811;52.382;5.270;2024-02-21T02:31:09;102058.78;;;8.10;100.00
47054;BME280;32811;52.382;5.270;2024-02-21T02:33:35;102055.44;;;8.13;100.00
47054;BME280;32811;52.382;5.270;2024-02-21T02:36:02;102050.28;;;8.13;100.00
47054;BME280;32811;52.382;5.270;2024-02-21T02:38:29;102046.00;;;8.11;100.00
47054;BME280;32811;52.382;5.270;2024-02-21T02:40:55;102046.81;;;8.10;100.00
47054;BME280;32811;52.382;5.270;2024-02-21T02:43:22;102044.28;;;8.12;100.00
47054;BME280;32811;52.382;5.270;2024-02-21T02:45:49;102035.63;;;8.08;100.00
47054;BME280;32811;52.382;5.270;2024-02-21T02:48:15;102027.00;;;8.08;100.00
47054;BME280;32811;52.382;5.270;2024-02-21T02:50:42;102022.84;;;8.11;100.00
47054;BME280;32811;52.382;5.270;2024-02-21T02:53:09;102014.25;;;8.11;100.00
47054;BME280;32811;52.382;5.270;2024-02-21T02:55:36;102020.22;;;8.10;100.00
47054;BME280;32811;52.382;5.270;2024-02-21T02:58:03;102014.25;;;8.11;100.00
47054;BME280;32811;52.382;5.270;2024-02-21T03:00:29;102020.28;;;8.11;100.00
47054;BME280;32811;52.382;5.270;2024-02-21T03:02:56;102015.91;;;8.09;100.00
47054;BME280;32811;52.382;5.270;2024-02-21T03:05:25;102010.69;;;8.07;100.00
47054;BME280;32811;52.382;5.270;2024-02-21T03:07:52;102012.47;;;8.08;100.00
47054;BME280;32811;52.382;5.270;2024-02-21T03:10:19;102003.06;;;8.09;100.00
47054;BME280;32811;52.382;5.270;2024-02-21T03:12:46;102019.56;;;8.16;100.00
47054;BME280;32811;52.382;5.270;2024-02-21T03:15:13;102013.50;;;8.14;100.00
47054;BME280;32811;52.382;5.270;2024-02-21T03:17:41;102011.84;;;8.16;100.00
47054;BME280;32811;52.382;5.270;2024-02-21T03:20:08;102000.69;;;8.15;100.00
47054;BME280;32811;52.382;5.270;2024-02-21T03:22:37;101985.19;;;8.14;100.00
47054;BME280;32811;52.382;5.270;2024-02-21T03:25:05;101985.41;;;8.20;100.00
47054;BME280;32811;52.382;5.270;2024-02-21T03:27:33;101982.84;;;8.20;100.00
47054;BME280;32811;52.382;5.270;2024-02-21T03:30:00;101984.47;;;8.18;100.00
47054;BME280;32811;52.382;5.270;2024-02-21T03:32:27;101964.41;;;8.07;100.00
47054;BME280;32811;52.382;5.270;2024-02-21T03:34:56;101969.84;;;8.15;100.00
47054;BME280;32811;52.382;5.270;2024-02-21T03:37:23;101966.34;;;8.13;100.00
47054;BME280;32811;52.382;5.270;2024-02-21T03:39:49;101952.69;;;8.16;100.00
47054;BME280;32811;52.382;5.270;2024-02-21T03:42:16;101945.69;;;8.11;100.00
47054;BME280;32811;52.382;5.270;2024-02-21T03:44:43;101956.97;;;8.15;100.00
47054;BME280;32811;52.382;5.270;2024-02-21T03:47:09;101943.19;;;8.13;100.00
47054;BME280;32811;52.382;5.270;2024-02-21T03:49:38;101954.34;;;8.14;100.00
47054;BME280;32811;52.382;5.270;2024-02-21T03:52:05;101949.91;;;8.09;100.00
47054;BME280;32811;52.382;5.270;2024-02-21T03:54:32;101944.91;;;8.14;100.00
47054;BME280;32811;52.382;5.270;2024-02-21T03:56:58;101944.88;;;8.13;100.00
47054;BME280;32811;52.382;5.270;2024-02-21T03:59:25;101935.41;;;8.11;100.00
47054;BME280;32811;52.382;5.270;2024-02-21T04:01:52;101932.13;;;8.16;100.00
47054;BME280;32811;52.382;5.270;2024-02-21T04:04:21;101918.34;;;8.14;100.00
47054;BME280;32811;52.382;5.270;2024-02-21T04:06:48;101941.56;;;8.17;100.00
47054;BME280;32811;52.382;5.270;2024-02-21T04:09:15;101928.56;;;8.12;100.00
47054;BME280;32811;52.382;5.270;2024-02-21T04:11:42;101922.63;;;8.13;100.00
47054;BME280;32811;52.382;5.270;2024-02-21T04:14:09;101903.69;;;8.11;100.00
47054;BME280;32811;52.382;5.270;2024-02-21T04:16:38;101914.19;;;8.17;100.00
47054;BME280;32811;52.382;5.270;2024-02-21T04:19:05;101920.19;;;8.18;100.00
47054;BME280;32811;52.382;5.270;2024-02-21T04:21:32;101927.84;;;8.16;100.00
47054;BME280;32811;52.382;5.270;2024-02-21T04:23:59;101925.13;;;8.11;100.00
47054;BME280;32811;52.382;5.270;2024-02-21T04:26:25;101929.50;;;8.14;100.00
47054;BME280;32811;52.382;5.270;2024-02-21T04:28:52;101926.06;;;8.14;100.00
47054;BME280;32811;52.382;5.270;2024-02-21T04:31:19;101924.25;;;8.11;100.00
47054;BME280;32811;52.382;5.270;2024-02-21T04:33:46;101929.44;;;8.13;100.00
47054;BME280;32811;52.382;5.270;2024-02-21T04:36:12;101929.41;;;8.11;100.00
47054;BME280;32811;52.382;5.270;2024-02-21T04:38:39;101924.25;;;8.11;100.00
47054;BME280;32811;52.382;5.270;2024-02-21T04:41:07;101919.06;;;8.09;100.00
47054;BME280;32811;52.382;5.270;2024-02-21T04:43:34;101915.75;;;8.14;100.00
47054;BME280;32811;52.382;5.270;2024-02-21T04:46:01;101908.84;;;8.13;100.00
47054;BME280;32811;52.382;5.270;2024-02-21T04:48:28;101904.63;;;8.13;100.00
47054;BME280;32811;52.382;5.270;2024-02-21T04:50:54;101901.91;;;8.08;100.00
47054;BME280;32811;52.382;5.270;2024-02-21T04:53:21;101894.28;;;8.11;100.00
47054;BME280;32811;52.382;5.270;2024-02-21T04:55:48;101894.19;;;8.08;100.00
47054;BME280;32811;52.382;5.270;2024-02-21T04:58:14;101896.84;;;8.11;100.00
47054;BME280;32811;52.382;5.270;2024-02-21T05:00:41;101895.06;;;8.09;100.00
47054;BME280;32811;52.382;5.270;2024-02-21T05:03:08;101892.47;;;8.09;100.00
47054;BME280;32811;52.382;5.270;2024-02-21T05:05:35;101882.84;;;8.02;100.00
47054;BME280;32811;52.382;5.270;2024-02-21T05:08:02;101884.81;;;8.10;100.00
47054;BME280;32811;52.382;5.270;2024-02-21T05:10:29;101885.63;;;8.09;100.00
47054;BME280;32811;52.382;5.270;2024-02-21T05:12:57;101882.25;;;8.10;100.00
47054;BME280;32811;52.382;5.270;2024-02-21T05:15:24;101873.50;;;8.05;100.00
47054;BME280;32811;52.382;5.270;2024-02-21T05:17:51;101858.00;;;8.02;100.00
47054;BME280;32811;52.382;5.270;2024-02-21T05:20:18;101858.94;;;8.06;100.00
47054;BME280;32811;52.382;5.270;2024-02-21T05:22:44;101856.44;;;8.07;100.00
47054;BME280;32811;52.382;5.270;2024-02-21T05:25:11;101863.41;;;8.11;100.00
47054;BME280;32811;52.382;5.270;2024-02-21T05:27:38;101859.91;;;8.09;100.00
47054;BME280;32811;52.382;5.270;2024-02-21T05:30:05;101858.19;;;8.08;100.00
47054;BME280;32811;52.382;5.270;2024-02-21T05:32:33;101843.56;;;8.07;100.00
47054;BME280;32811;52.382;5.270;2024-02-21T05:34:59;101836.59;;;8.03;100.00
47054;BME280;32811;52.382;5.270;2024-02-21T05:37:26;101839.16;;;8.03;100.00
47054;BME280;32811;52.382;5.270;2024-02-21T05:39:53;101840.13;;;8.07;100.00
47054;BME280;32811;52.382;5.270;2024-02-21T05:42:20;101826.28;;;8.03;100.00
47054;BME280;32811;52.382;5.270;2024-02-21T05:44:46;101831.41;;;8.02;100.00
47054;BME280;32811;52.382;5.270;2024-02-21T05:47:13;101801.16;;;7.93;100.00
47054;BME280;32811;52.382;5.270;2024-02-21T05:49:42;101804.81;;;8.01;100.00
47054;BME280;32811;52.382;5.270;2024-02-21T05:52:09;101796.00;;;7.93;100.00
47054;BME280;32811;52.382;5.270;2024-02-21T05:54:38;101801.22;;;7.96;100.00
47054;BME280;32811;52.382;5.270;2024-02-21T05:57:08;101802.88;;;7.94;100.00
47054;BME280;32811;52.382;5.270;2024-02-21T05:59:34;101796.81;;;7.92;100.00
47054;BME280;32811;52.382;5.270;2024-02-21T06:02:03;101786.47;;;7.89;100.00
47054;BME280;32811;52.382;5.270;2024-02-21T06:04:30;101797.78;;;7.96;100.00
47054;BME280;32811;52.382;5.270;2024-02-21T06:06:57;101796.81;;;7.92;100.00
47054;BME280;32811;52.382;5.270;2024-02-21T06:09:24;101794.16;;;7.89;100.00
47054;BME280;32811;52.382;5.270;2024-02-21T06:11:51;101794.16;;;7.89;100.00
47054;BME280;32811;52.382;5.270;2024-02-21T06:14:19;101794.25;;;7.92;100.00
47054;BME280;32811;52.382;5.270;2024-02-21T06:16:46;101792.47;;;7.89;100.00
47054;BME280;32811;52.382;5.270;2024-02-21T06:19:12;101789.84;;;7.88;100.00
47054;BME280;32811;52.382;5.270;2024-02-21T06:21:39;101789.84;;;7.88;100.00
47054;BME280;32811;52.382;5.270;2024-02-21T06:24:06;101792.41;;;7.88;100.00
47054;BME280;32811;52.382;5.270;2024-02-21T06:26:33;101797.53;;;7.86;100.00
47054;BME280;32811;52.382;5.270;2024-02-21T06:28:59;101796.88;;;7.94;100.00
47054;BME280;32811;52.382;5.270;2024-02-21T06:31:27;101801.19;;;7.95;100.00
47054;BME280;32811;52.382;5.270;2024-02-21T06:33:54;101801.03;;;7.90;100.00
47054;BME280;32811;52.382;5.270;2024-02-21T06:36:21;101801.00;;;7.88;100.00
47054;BME280;32811;52.382;5.270;2024-02-21T06:38:48;101795.81;;;7.87;100.00
47054;BME280;32811;52.382;5.270;2024-02-21T06:41:18;101798.44;;;7.88;100.00
47054;BME280;32811;52.382;5.270;2024-02-21T06:43:46;101798.44;;;7.88;100.00
47054;BME280;32811;52.382;5.270;2024-02-21T06:46:26;101795.81;;;7.87;100.00
47054;BME280;32811;52.382;5.270;2024-02-21T06:48:56;101798.38;;;7.87;100.00
47054;BME280;32811;52.382;5.270;2024-02-21T06:51:24;101792.47;;;7.89;100.00
47054;BME280;32811;52.382;5.270;2024-02-21T06:53:54;101793.31;;;7.88;100.00
47054;BME280;32811;52.382;5.270;2024-02-21T06:56:24;101789.94;;;7.91;100.00
47054;BME280;32811;52.382;5.270;2024-02-21T06:58:55;101786.41;;;7.87;100.00
47054;BME280;32811;52.382;5.270;2024-02-21T07:01:23;101772.75;;;7.90;100.00
47054;BME280;32811;52.382;5.270;2024-02-21T07:03:50;101767.63;;;7.90;100.00
47054;BME280;32811;52.382;5.270;2024-02-21T07:06:17;101764.91;;;7.85;100.00
47054;BME280;32811;52.382;5.270;2024-02-21T07:08:43;101770.16;;;7.88;100.00
47054;BME280;32811;52.382;5.270;2024-02-21T07:11:11;101764.97;;;7.87;100.00
47054;BME280;32811;52.382;5.270;2024-02-21T07:13:37;101764.13;;;7.88;100.00
47054;BME280;32811;52.382;5.270;2024-02-21T07:16:07;101764.25;;;7.91;100.00
47054;BME280;32811;52.382;5.270;2024-02-21T07:18:34;101769.47;;;7.94;100.00
47054;BME280;32811;52.382;5.270;2024-02-21T07:21:01;101760.81;;;7.90;100.00
47054;BME280;32811;52.382;5.270;2024-02-21T07:23:27;101759.09;;;7.91;100.00
47054;BME280;32811;52.382;5.270;2024-02-21T07:25:54;101749.63;;;7.90;100.00
47054;BME280;32811;52.382;5.270;2024-02-21T07:28:21;101750.41;;;7.87;100.00
47054;BME280;32811;52.382;5.270;2024-02-21T07:30:48;101752.31;;;7.93;100.00
47054;BME280;32811;52.382;5.270;2024-02-21T07:33:14;101747.25;;;7.96;100.00
47054;BME280;32811;52.382;5.270;2024-02-21T07:35:44;101749.03;;;7.99;100.00
47054;BME280;32811;52.382;5.270;2024-02-21T07:38:11;101732.47;;;7.89;100.00
47054;BME280;32811;52.382;5.270;2024-02-21T07:40:39;101730.03;;;7.94;100.00
47054;BME280;32811;52.382;5.270;2024-02-21T07:43:06;101718.09;;;7.96;100.00
47054;BME280;32811;52.382;5.270;2024-02-21T07:45:32;101718.16;;;7.97;100.00
47054;BME280;32811;52.382;5.270;2024-02-21T07:47:59;101710.44;;;7.97;100.00
47054;BME280;32811;52.382;5.270;2024-02-21T07:50:26;101714.88;;;8.03;100.00
47054;BME280;32811;52.382;5.270;2024-02-21T07:52:53;101707.97;;;8.00;100.00
47054;BME280;32811;52.382;5.270;2024-02-21T07:55:20;101704.47;;;7.98;100.00
47054;BME280;32811;52.382;5.270;2024-02-21T07:57:46;101701.03;;;7.98;100.00
47054;BME280;32811;52.382;5.270;2024-02-21T08:00:13;101709.81;;;8.06;100.00
47054;BME280;32811;52.382;5.270;2024-02-21T08:02:48;101706.50;;;8.08;100.00
47054;BME280;32811;52.382;5.270;2024-02-21T08:05:15;101702.06;;;8.04;100.00
47054;BME280;32811;52.382;5.270;2024-02-21T08:07:42;101707.22;;;8.04;100.00
47054;BME280;32811;52.382;5.270;2024-02-21T08:10:08;101712.50;;;8.09;100.00
47054;BME280;32811;52.382;5.270;2024-02-21T08:12:35;101698.78;;;8.08;100.00
47054;BME280;32811;52.382;5.270;2024-02-21T08:15:02;101694.44;;;8.07;100.00
47054;BME280;32811;52.382;5.270;2024-02-21T08:17:34;101694.63;;;8.14;100.00
47054;BME280;32811;52.382;5.270;2024-02-21T08:20:01;101689.56;;;8.17;100.00
47054;BME280;32811;52.382;5.270;2024-02-21T08:22:27;101686.84;;;8.10;100.00
47054;BME280;32811;52.382;5.270;2024-02-21T08:24:54;101686.13;;;8.16;100.00
47054;BME280;32811;52.382;5.270;2024-02-21T08:27:21;101673.19;;;8.13;100.00
47054;BME280;32811;52.382;5.270;2024-02-21T08:29:48;101683.72;;;8.22;100.00
47054;BME280;32811;52.382;5.270;2024-02-21T08:32:14;101668.25;;;8.21;100.00
47054;BME280;32811;52.382;5.270;2024-02-21T08:34:41;101661.38;;;8.20;100.00
47054;BME280;32811;52.382;5.270;2024-02-21T08:37:08;101655.25;;;8.16;100.00
47054;BME280;32811;52.382;5.270;2024-02-21T08:39:37;101656.28;;;8.23;100.00
47054;BME280;32811;52.382;5.270;2024-02-21T08:42:04;101652.03;;;8.23;100.00
47054;BME280;32811;52.382;5.270;2024-02-21T08:44:31;101647.66;;;8.21;100.00
47054;BME280;32811;52.382;5.270;2024-02-21T08:46:57;101647.78;;;8.24;100.00
47054;BME280;32811;52.382;5.270;2024-02-21T08:49:24;101646.88;;;8.23;100.00
47054;BME280;32811;52.382;5.270;2024-02-21T08:52:00;101634.13;;;8.26;100.00
47054;BME280;32811;52.382;5.270;2024-02-21T08:54:26;101642.75;;;8.30;100.00
47054;BME280;32811;52.382;5.270;2024-02-21T08:56:54;101638.59;;;8.34;100.00
47054;BME280;32811;52.382;5.270;2024-02-21T08:59:21;101637.63;;;8.30;100.00
47054;BME280;32811;52.382;5.270;2024-02-21T09:01:47;101641.91;;;8.29;100.00
47054;BME280;32811;52.382;5.270;2024-02-21T09:04:14;101635.22;;;8.36;100.00
47054;BME280;32811;52.382;5.270;2024-02-21T09:06:41;101640.44;;;8.39;100.00
47054;BME280;32811;52.382;5.270;2024-02-21T09:09:08;101638.06;;;8.45;100.00
47054;BME280;32811;52.382;5.270;2024-02-21T09:11:37;101636.28;;;8.43;100.00
47054;BME280;32811;52.382;5.270;2024-02-21T09:14:04;101622.66;;;8.47;100.00
47054;BME280;32811;52.382;5.270;2024-02-21T09:16:31;101614.03;;;8.45;100.00
47054;BME280;32811;52.382;5.270;2024-02-21T09:18:58;101601.25;;;8.48;100.00
47054;BME280;32811;52.382;5.270;2024-02-21T09:21:25;101601.22;;;8.46;100.00
47054;BME280;32811;52.382;5.270;2024-02-21T09:23:52;101593.50;;;8.46;100.00
47054;BME280;32811;52.382;5.270;2024-02-21T09:26:23;101599.69;;;8.53;100.00
47054;BME280;32811;52.382;5.270;2024-02-21T09:28:49;101585.91;;;8.51;100.00
47054;BME280;32811;52.382;5.270;2024-02-21T09:31:16;101570.38;;;8.48;100.00
47054;BME280;32811;52.382;5.270;2024-02-21T09:33:43;101577.34;;;8.52;100.00
47054;BME280;32811;52.382;5.270;2024-02-21T09:36:09;101573.97;;;8.55;100.00
47054;BME280;32811;52.382;5.270;2024-02-21T09:38:39;101566.25;;;8.55;100.00
47054;BME280;32811;52.382;5.270;2024-02-21T09:41:17;101561.16;;;8.56;100.00
47054;BME280;32811;52.382;5.270;2024-02-21T09:43:51;101565.44;;;8.57;100.00
47054;BME280;32811;52.382;5.270;2024-02-21T09:46:42;101547.47;;;8.59;100.00
47054;BME280;32811;52.382;5.270;2024-02-21T09:51:51;101530.53;;;8.68;100.00
47054;BME280;32811;52.382;5.270;2024-02-21T09:54:21;101520.25;;;8.67;100.00
47054;BME280;32811;52.382;5.270;2024-02-21T09:56:48;101507.31;;;8.65;100.00
47054;BME280;32811;52.382;5.270;2024-02-21T09:59:15;101503.22;;;8.73;100.00
47054;BME280;32811;52.382;5.270;2024-02-21T10:01:45;101502.56;;;8.82;100.00
47054;BME280;32811;52.382;5.270;2024-02-21T10:04:15;101501.66;;;8.80;100.00
47054;BME280;32811;52.382;5.270;2024-02-21T10:06:43;101499.09;;;8.80;100.00
47054;BME280;32811;52.382;5.270;2024-02-21T10:09:30;101496.53;;;8.82;100.00
47054;BME280;32811;52.382;5.270;2024-02-21T10:12:08;101486.28;;;8.83;100.00
47054;BME280;32811;52.382;5.270;2024-02-21T10:14:36;101475.03;;;8.78;100.00
47054;BME280;32811;52.382;5.270;2024-02-21T10:17:02;101481.97;;;8.84;100.00
47054;BME280;32811;52.382;5.270;2024-02-21T10:19:31;101480.41;;;8.89;100.00
47054;BME280;32811;52.382;5.270;2024-02-21T10:22:03;101469.25;;;8.90;100.00
47054;BME280;32811;52.382;5.270;2024-02-21T10:24:34;101459.13;;;8.98;100.00
47054;BME280;32811;52.382;5.270;2024-02-21T10:27:08;101448.59;;;8.87;100.00
47054;BME280;32811;52.382;5.270;2024-02-21T10:29:35;101453.19;;;9.02;100.00
47054;BME280;32811;52.382;5.270;2024-02-21T10:32:13;101443.75;;;9.01;100.00
47054;BME280;32811;52.382;5.270;2024-02-21T10:34:41;101436.06;;;9.02;100.00
47054;BME280;32811;52.382;5.270;2024-02-21T10:37:11;101435.28;;;9.08;100.00
47054;BME280;32811;52.382;5.270;2024-02-21T10:39:41;101426.53;;;9.00;100.00
47054;BME280;32811;52.382;5.270;2024-02-21T10:42:11;101434.25;;;9.00;100.00
47054;BME280;32811;52.382;5.270;2024-02-21T10:44:40;101426.72;;;9.07;100.00
47054;BME280;32811;52.382;5.270;2024-02-21T10:47:09;101431.94;;;9.12;100.00
47054;BME280;32811;52.382;5.270;2024-02-21T10:49:40;101413.06;;;9.13;100.00
47054;BME280;32811;52.382;5.270;2024-02-21T10:52:22;101401.97;;;9.16;100.00
47054;BME280;32811;52.382;5.270;2024-02-21T10:55:02;101399.34;;;9.12;100.00
47054;BME280;32811;52.382;5.270;2024-02-21T10:57:34;101387.28;;;9.10;100.00
47054;BME280;32811;52.382;5.270;2024-02-21T11:00:04;101388.28;;;9.20;100.00
47054;BME280;32811;52.382;5.270;2024-02-21T11:02:34;101366.91;;;9.24;100.00
47054;BME280;32811;52.382;5.270;2024-02-21T11:05:02;101346.31;;;9.24;100.00
47054;BME280;32811;52.382;5.270;2024-02-21T11:07:30;101339.44;;;9.23;100.00
47054;BME280;32811;52.382;5.270;2024-02-21T11:09:59;101329.94;;;9.20;100.00
47054;BME280;32811;52.382;5.270;2024-02-21T11:12:26;101342.91;;;9.25;100.00
47054;BME280;32811;52.382;5.270;2024-02-21T11:15:04;101366.81;;;9.18;100.00
47054;BME280;32811;52.382;5.270;2024-02-21T11:17:31;101387.47;;;9.21;100.00
47054;BME280;32811;52.382;5.270;2024-02-21T11:20:11;101393.28;;;9.10;100.00
47054;BME280;32811;52.382;5.270;2024-02-21T11:22:42;101392.47;;;9.13;100.00
47054;BME280;32811;52.382;5.270;2024-02-21T11:25:09;101379.41;;;9.02;100.00
47054;BME280;32811;52.382;5.270;2024-02-21T11:27:38;101375.00;;;8.97;100.00
47054;BME280;32811;52.382;5.270;2024-02-21T11:30:05;101366.38;;;8.94;100.00
47054;BME280;32811;52.382;5.270;2024-02-21T11:32:32;101355.91;;;8.85;100.00
47054;BME280;32811;52.382;5.270;2024-02-21T11:35:00;101353.28;;;8.82;100.00
47054;BME280;32811;52.382;5.270;2024-02-21T11:37:35;101357.84;;;8.97;100.00
47054;BME280;32811;52.382;5.270;2024-02-21T11:40:05;101333.88;;;9.01;100.00
47054;BME280;32811;52.382;5.270;2024-02-21T11:42:37;101327.00;;;9.00;100.00
47054;BME280;32811;52.382;5.270;2024-02-21T11:45:04;101328.66;;;8.97;100.00
47054;BME280;32811;52.382;5.270;2024-02-21T11:47:31;101307.16;;;8.94;100.00
47054;BME280;32811;52.382;5.270;2024-02-21T11:49:58;101315.72;;;8.93;100.00
47054;BME280;32811;52.382;5.270;2024-02-21T11:52:25;101293.34;;;8.89;100.00
47054;BME280;32811;52.382;5.270;2024-02-21T11:54:53;101308.78;;;8.89;100.00
47054;BME280;32811;52.382;5.270;2024-02-21T11:57:22;101277.69;;;8.79;100.00
47054;BME280;32811;52.382;5.270;2024-02-21T11:59:51;101274.16;;;8.73;100.00
47054;BME280;32811;52.382;5.270;2024-02-21T12:02:26;101260.50;;;8.76;100.00
47054;BME280;32811;52.382;5.270;2024-02-21T12:04:53;101235.09;;;8.96;100.00
47054;BME280;32811;52.382;5.270;2024-02-21T12:07:21;101219.19;;;9.20;100.00
47054;BME280;32811;52.382;5.270;2024-02-21T12:09:50;101211.63;;;9.31;100.00
47054;BME280;32811;52.382;5.270;2024-02-21T12:12:20;101195.41;;;9.37;100.00
47054;BME280;32811;52.382;5.270;2024-02-21T12:14:55;101179.13;;;9.39;100.00
47054;BME280;32811;52.382;5.270;2024-02-21T12:17:23;101188.81;;;9.57;100.00
47054;BME280;32811;52.382;5.270;2024-02-21T12:19:50;101179.31;;;9.53;100.00
47054;BME280;32811;52.382;5.270;2024-02-21T12:22:20;101184.59;;;9.61;100.00
47054;BME280;32811;52.382;5.270;2024-02-21T12:24:47;101160.53;;;9.62;100.00
47054;BME280;32811;52.382;5.270;2024-02-21T12:27:15;101161.38;;;9.59;100.00
47054;BME280;32811;52.382;5.270;2024-02-21T12:29:42;101159.66;;;9.60;100.00
47054;BME280;32811;52.382;5.270;2024-02-21T12:32:08;101152.19;;;9.80;100.00
47054;BME280;32811;52.382;5.270;2024-02-21T12:34:35;101142.75;;;9.80;100.00
47054;BME280;32811;52.382;5.270;2024-02-21T12:37:18;101130.72;;;9.81;100.00
47054;BME280;32811;52.382;5.270;2024-02-21T12:39:47;101118.66;;;9.78;100.00
47054;BME280;32811;52.382;5.270;2024-02-21T12:42:13;101122.88;;;9.73;100.00
47054;BME280;32811;52.382;5.270;2024-02-21T12:44:40;101116.84;;;9.71;100.00
47054;BME280;32811;52.382;5.270;2024-02-21T12:47:07;101120.22;;;9.65;100.00
47054;BME280;32811;52.382;5.270;2024-02-21T12:49:34;101101.28;;;9.63;100.00
47054;BME280;32811;52.382;5.270;2024-02-21T12:52:01;101079.72;;;9.55;100.00
47054;BME280;32811;52.382;5.270;2024-02-21T12:54:30;101083.22;;;9.60;100.00
47054;BME280;32811;52.382;5.270;2024-02-21T12:56:57;101061.72;;;9.58;100.00